createdAt,value
2022-10-19T00:00:50.315Z,99.90
2022-10-19T00:03:20.780Z,99.90
2022-10-19T00:05:50.293Z,99.90
2022-10-19T00:08:17.405Z,99.90
2022-10-19T00:10:44.624Z,99.90
2022-10-19T00:13:11.702Z,99.90
2022-10-19T00:15:40.449Z,99.90
2022-10-19T00:18:09.135Z,99.90
2022-10-19T00:20:37.077Z,99.90
2022-10-19T00:23:04.777Z,99.90
2022-10-19T00:25:32.183Z,99.90
2022-10-19T00:27:59.258Z,99.90
2022-10-19T00:30:26.439Z,99.90
2022-10-19T00:32:53.578Z,99.90
2022-10-19T00:35:20.738Z,99.90
2022-10-19T00:37:47.895Z,99.90
2022-10-19T00:40:15.093Z,99.90
2022-10-19T00:42:42.372Z,99.90
2022-10-19T00:45:17.792Z,99.90
2022-10-19T00:47:46.388Z,99.90
2022-10-19T00:50:15.377Z,99.90
2022-10-19T00:52:43.049Z,99.90
2022-10-19T00:55:12.313Z,99.90
2022-10-19T00:57:40.792Z,99.90
2022-10-19T01:00:09.064Z,99.90
2022-10-19T01:02:37.112Z,99.90
2022-10-19T01:05:05.153Z,99.90
2022-10-19T01:07:33.476Z,99.90
2022-10-19T01:10:02.454Z,99.90
2022-10-19T01:12:44.374Z,99.90
2022-10-19T01:15:29.712Z,99.90
2022-10-19T01:18:21.856Z,99.90
2022-10-19T01:21:10.734Z,99.90
2022-10-19T01:24:05.169Z,99.90
2022-10-19T01:26:57.734Z,99.90
2022-10-19T01:29:30.649Z,99.90
2022-10-19T01:32:11.793Z,99.90
2022-10-19T01:35:24.803Z,99.90
2022-10-19T01:38:17.651Z,99.90
2022-10-19T01:40:56.788Z,99.90
2022-10-19T01:43:30.006Z,99.90
2022-10-19T01:46:19.857Z,99.90
2022-10-19T01:49:16.218Z,99.90
2022-10-19T01:51:49.768Z,99.90
2022-10-19T01:54:18.861Z,99.90
2022-10-19T01:56:48.010Z,99.90
2022-10-19T01:59:18.079Z,99.90
2022-10-19T02:01:47.948Z,99.90
2022-10-19T02:04:18.974Z,99.90
2022-10-19T02:06:46.533Z,99.90
2022-10-19T02:09:18.475Z,99.90
2022-10-19T02:11:51.297Z,99.90
2022-10-19T02:14:25.761Z,99.90
2022-10-19T02:16:59.866Z,99.90
2022-10-19T02:19:27.050Z,99.90
2022-10-19T02:21:54.915Z,99.90
2022-10-19T02:24:22.133Z,99.90
2022-10-19T02:26:50.397Z,99.90
2022-10-19T02:29:18.897Z,99.90
2022-10-19T02:31:46.105Z,99.90
2022-10-19T02:34:13.898Z,99.90
2022-10-19T02:36:41.517Z,99.90
2022-10-19T02:39:09.318Z,99.90
2022-10-19T02:41:48.280Z,99.90
2022-10-19T02:44:24.954Z,99.90
2022-10-19T02:47:03.542Z,99.90
2022-10-19T02:49:34.567Z,99.90
2022-10-19T02:52:04.848Z,99.90
2022-10-19T02:54:32.467Z,99.90
2022-10-19T02:56:59.720Z,99.90
2022-10-19T02:59:27.027Z,99.90
2022-10-19T03:01:54.200Z,99.90
2022-10-19T03:04:21.415Z,99.90
2022-10-19T03:06:48.661Z,99.90
2022-10-19T03:09:15.817Z,99.90
2022-10-19T03:11:43.031Z,99.90
2022-10-19T03:14:10.242Z,99.90
2022-10-19T03:16:37.323Z,99.90
2022-10-19T03:19:04.540Z,99.90
2022-10-19T03:21:31.615Z,99.90
2022-10-19T03:24:00.893Z,99.90
2022-10-19T03:26:28.098Z,99.90
2022-10-19T03:28:55.248Z,99.90
2022-10-19T03:31:22.368Z,99.90
2022-10-19T03:33:50.641Z,99.90
2022-10-19T03:36:26.869Z,99.90
2022-10-19T03:38:56.149Z,99.90
2022-10-19T03:41:24.926Z,99.90
2022-10-19T03:43:52.750Z,99.90
2022-10-19T03:46:20.378Z,99.90
2022-10-19T03:48:48.183Z,99.90
2022-10-19T03:51:18.059Z,99.90
2022-10-19T03:53:45.496Z,99.90
2022-10-19T03:56:17.744Z,99.90
2022-10-19T03:58:46.676Z,99.90
2022-10-19T04:01:19.860Z,99.90
2022-10-19T04:03:47.153Z,99.90
2022-10-19T04:06:19.599Z,99.90
2022-10-19T04:08:50.282Z,99.90
2022-10-19T04:11:19.349Z,99.90
2022-10-19T04:13:50.558Z,99.90
2022-10-19T04:16:18.770Z,99.90
2022-10-19T04:18:46.216Z,99.90
2022-10-19T04:21:30.158Z,99.90
2022-10-19T04:24:09.210Z,99.90
2022-10-19T04:26:43.620Z,99.90
2022-10-19T04:29:11.662Z,99.90
2022-10-19T04:31:39.831Z,99.90
2022-10-19T04:34:07.636Z,99.90
2022-10-19T04:36:34.922Z,99.90
2022-10-19T04:39:02.323Z,99.90
2022-10-19T04:41:29.534Z,99.90
2022-10-19T04:43:59.079Z,99.90
2022-10-19T04:46:27.368Z,99.90
2022-10-19T04:48:55.866Z,99.90
2022-10-19T04:51:24.292Z,99.90
2022-10-19T04:53:53.368Z,99.90
2022-10-19T04:56:26.376Z,99.90
2022-10-19T04:58:59.101Z,99.90
2022-10-19T05:01:28.576Z,99.90
2022-10-19T05:06:30.720Z,99.90
2022-10-19T05:08:58.383Z,99.90
2022-10-19T05:11:25.899Z,99.90
2022-10-19T05:13:53.099Z,99.90
2022-10-19T05:16:22.621Z,99.90
2022-10-19T05:18:51.253Z,99.90
2022-10-19T05:21:20.856Z,99.90
2022-10-19T05:23:51.080Z,99.90
2022-10-19T05:26:20.170Z,99.90
2022-10-19T05:28:51.477Z,99.90
2022-10-19T05:31:21.102Z,99.90
2022-10-19T05:33:48.366Z,99.90
2022-10-19T05:36:15.515Z,99.90
2022-10-19T05:38:44.119Z,99.90
2022-10-19T05:41:11.731Z,99.90
2022-10-19T05:43:40.486Z,99.90
2022-10-19T05:46:11.096Z,99.90
2022-10-19T05:48:39.324Z,99.90
2022-10-19T05:51:08.362Z,99.90
2022-10-19T05:53:36.087Z,99.90
2022-10-19T05:56:06.258Z,99.90
2022-10-19T05:58:34.183Z,99.90
2022-10-19T06:01:02.233Z,99.90
2022-10-19T06:03:29.449Z,99.90
2022-10-19T06:05:58.117Z,99.90
2022-10-19T06:08:25.426Z,99.90
2022-10-19T06:10:52.953Z,99.90
2022-10-19T06:13:21.006Z,99.90
2022-10-19T06:15:51.697Z,99.90
2022-10-19T06:18:19.014Z,99.90
2022-10-19T06:20:46.502Z,99.90
2022-10-19T06:23:13.691Z,99.90
2022-10-19T06:25:41.258Z,99.90
2022-10-19T06:28:08.958Z,99.90
2022-10-19T06:30:40.636Z,99.90
2022-10-19T06:33:08.315Z,99.90
2022-10-19T06:35:35.724Z,99.90
2022-10-19T06:38:02.982Z,99.90
2022-10-19T06:40:30.350Z,99.90
2022-10-19T06:42:58.036Z,99.90
2022-10-19T06:45:25.355Z,99.90
2022-10-19T06:47:52.579Z,99.90
2022-10-19T06:50:20.819Z,99.90
2022-10-19T06:52:48.356Z,99.90
2022-10-19T06:55:17.252Z,99.90
2022-10-19T06:57:45.456Z,99.90
2022-10-19T07:00:13.677Z,99.90
2022-10-19T07:02:40.873Z,99.90
2022-10-19T07:05:09.129Z,99.90
2022-10-19T07:07:36.944Z,99.90
2022-10-19T07:10:04.781Z,99.90
2022-10-19T07:12:32.006Z,99.90
2022-10-19T07:14:59.267Z,99.90
2022-10-19T07:17:26.434Z,99.90
2022-10-19T07:19:53.700Z,99.90
2022-10-19T07:22:27.126Z,99.90
2022-10-19T07:24:55.233Z,99.90
2022-10-19T07:27:22.562Z,99.90
2022-10-19T07:29:49.947Z,99.90
2022-10-19T07:32:17.205Z,99.90
2022-10-19T07:34:44.403Z,99.90
2022-10-19T07:37:11.557Z,99.90
2022-10-19T07:39:38.835Z,99.90
2022-10-19T07:42:06.058Z,99.90
2022-10-19T07:44:33.196Z,99.90
2022-10-19T07:47:00.410Z,99.90
2022-10-19T07:49:27.573Z,99.90
2022-10-19T07:51:56.324Z,99.90
2022-10-19T07:54:24.732Z,99.90
2022-10-19T07:56:51.823Z,99.90
2022-10-19T07:59:19.552Z,99.90
2022-10-19T08:01:47.856Z,99.90
2022-10-19T08:04:56.136Z,99.90
2022-10-19T08:07:03.668Z,99.90
2022-10-19T08:12:17.907Z,99.90
2022-10-19T08:14:45.012Z,99.90
2022-10-19T08:17:16.804Z,99.90
2022-10-19T08:19:45.134Z,99.90
2022-10-19T08:22:12.352Z,99.90
2022-10-19T08:24:39.548Z,99.90
2022-10-19T08:27:06.692Z,99.90
2022-10-19T08:29:33.785Z,99.90
2022-10-19T08:32:00.986Z,99.90
2022-10-19T08:34:28.220Z,99.90
2022-10-19T08:36:55.335Z,99.90
2022-10-19T08:39:22.645Z,99.90
2022-10-19T08:42:06.580Z,99.90
2022-10-19T08:45:01.512Z,99.90
2022-10-19T08:47:55.872Z,99.90
2022-10-19T08:50:33.226Z,99.90
2022-10-19T08:53:07.500Z,99.90
2022-10-19T08:56:03.748Z,99.90
2022-10-19T08:59:07.467Z,99.90
2022-10-19T09:01:47.105Z,99.90
2022-10-19T09:04:40.012Z,99.90
2022-10-19T09:07:22.317Z,99.90
2022-10-19T09:10:15.987Z,99.90
2022-10-19T09:12:52.812Z,99.90
2022-10-19T09:15:36.563Z,99.90
2022-10-19T09:18:03.768Z,99.90
2022-10-19T09:20:38.195Z,99.90
2022-10-19T09:23:21.322Z,99.30
2022-10-19T09:25:50.918Z,99.80
2022-10-19T09:29:07.482Z,99.90
2022-10-19T09:31:40.670Z,99.20
2022-10-19T09:34:24.579Z,98.90
2022-10-19T09:36:56.240Z,97.30
2022-10-19T09:39:27.028Z,96.80
2022-10-19T09:42:16.526Z,97.00
2022-10-19T09:44:43.784Z,96.90
2022-10-19T09:47:36.878Z,96.60
2022-10-19T09:50:22.300Z,97.80
2022-10-19T09:53:03.247Z,97.20
2022-10-19T09:55:42.145Z,97.60
2022-10-19T09:58:15.237Z,94.40
2022-10-19T10:00:55.973Z,93.20
2022-10-19T10:03:29.315Z,93.20
2022-10-19T10:05:59.004Z,93.50
2022-10-19T10:08:33.629Z,92.10
2022-10-19T10:11:09.353Z,90.80
2022-10-19T10:13:42.794Z,90.80
2022-10-19T10:16:14.313Z,90.70
2022-10-19T10:18:59.467Z,91.70
2022-10-19T10:21:33.843Z,88.90
2022-10-19T10:24:05.521Z,89.50
2022-10-19T10:26:38.115Z,89.30
2022-10-19T10:29:24.521Z,90.10
2022-10-19T10:32:16.436Z,88.60
2022-10-19T10:34:59.997Z,88.30
2022-10-19T10:37:47.591Z,88.10
2022-10-19T10:40:35.366Z,88.00
2022-10-19T10:43:14.019Z,84.20
2022-10-19T10:45:47.282Z,86.60
2022-10-19T10:48:17.481Z,84.50
2022-10-19T10:50:45.135Z,86.00
2022-10-19T10:53:33.196Z,84.80
2022-10-19T10:56:00.370Z,84.60
2022-10-19T10:58:33.075Z,80.70
2022-10-19T11:01:07.638Z,79.60
2022-10-19T11:03:38.096Z,82.80
2022-10-19T11:06:05.299Z,85.10
2022-10-19T11:08:41.359Z,89.90
2022-10-19T11:11:19.910Z,89.90
2022-10-19T11:13:59.279Z,86.50
2022-10-19T11:16:48.147Z,86.40
2022-10-19T11:19:29.785Z,82.70
2022-10-19T11:22:06.852Z,79.90
2022-10-19T11:24:51.260Z,84.20
2022-10-19T11:28:00.703Z,87.20
2022-10-19T11:30:28.042Z,87.80
2022-10-19T11:33:19.722Z,91.00
2022-10-19T11:35:54.189Z,89.30
2022-10-19T11:39:09.404Z,90.30
2022-10-19T11:41:39.441Z,91.00
2022-10-19T11:44:18.637Z,91.80
2022-10-19T11:47:17.335Z,92.30
2022-10-19T11:50:07.410Z,92.10
2022-10-19T11:53:01.934Z,93.30
2022-10-19T11:55:33.904Z,93.90
2022-10-19T11:58:05.455Z,93.30
2022-10-19T12:00:41.448Z,91.50
2022-10-19T12:03:34.475Z,89.10
2022-10-19T12:06:14.578Z,83.60
2022-10-19T12:08:44.482Z,83.30
2022-10-19T12:11:28.357Z,79.50
2022-10-19T12:14:01.340Z,76.10
2022-10-19T12:16:44.565Z,76.70
2022-10-19T12:19:32.097Z,81.00
2022-10-19T12:22:02.488Z,78.10
2022-10-19T12:24:32.454Z,78.40
2022-10-19T12:27:01.394Z,76.40
2022-10-19T12:29:34.563Z,76.00
2022-10-19T12:32:03.488Z,74.90
2022-10-19T12:34:45.764Z,74.50
2022-10-19T12:37:19.867Z,74.20
2022-10-19T12:40:05.853Z,73.00
2022-10-19T12:43:00.525Z,70.50
2022-10-19T12:45:47.197Z,69.30
2022-10-19T12:48:15.214Z,71.40
2022-10-19T12:50:53.978Z,71.90
2022-10-19T12:53:58.033Z,72.00
2022-10-19T12:56:26.422Z,73.20
2022-10-19T12:58:55.283Z,71.40
2022-10-19T13:01:28.236Z,72.30
2022-10-19T13:04:15.760Z,70.00
2022-10-19T13:07:05.012Z,69.10
2022-10-19T13:09:38.894Z,68.00
2022-10-19T13:12:17.981Z,67.20
2022-10-19T13:14:56.428Z,71.20
2022-10-19T13:17:40.783Z,73.10
2022-10-19T13:20:14.160Z,72.10
2022-10-19T13:22:42.445Z,73.80
2022-10-19T13:25:35.255Z,72.00
2022-10-19T13:28:27.903Z,70.10
2022-10-19T13:31:06.013Z,69.90
2022-10-19T13:33:42.058Z,69.40
2022-10-19T13:36:09.826Z,70.20
2022-10-19T13:38:40.001Z,68.80
2022-10-19T13:41:39.650Z,67.30
2022-10-19T13:44:10.471Z,68.70
2022-10-19T13:47:11.339Z,66.30
2022-10-19T13:49:44.310Z,67.20
2022-10-19T13:52:30.037Z,66.70
2022-10-19T13:55:28.812Z,65.00
2022-10-19T13:58:33.725Z,64.80
2022-10-19T14:01:19.821Z,67.10
2022-10-19T14:04:07.298Z,70.50
2022-10-19T14:07:05.799Z,72.50
2022-10-19T14:10:02.352Z,76.30
2022-10-19T14:12:37.042Z,80.00
2022-10-19T14:15:24.219Z,81.20
2022-10-19T14:17:51.357Z,82.90
2022-10-19T14:20:34.642Z,83.20
2022-10-19T14:23:25.393Z,83.00
2022-10-19T14:26:14.058Z,82.20
2022-10-19T14:28:43.258Z,79.00
2022-10-19T14:31:17.562Z,77.90
2022-10-19T14:33:47.956Z,77.10
2022-10-19T14:36:18.515Z,78.70
2022-10-19T14:38:47.061Z,81.30
2022-10-19T14:41:28.340Z,83.00
2022-10-19T14:43:56.914Z,84.50
2022-10-19T14:46:31.044Z,87.10
2022-10-19T14:49:03.136Z,87.80
2022-10-19T14:51:48.299Z,87.60
2022-10-19T14:54:40.875Z,90.00
2022-10-19T14:57:16.258Z,89.90
2022-10-19T14:59:50.155Z,90.20
2022-10-19T15:02:25.840Z,90.30
2022-10-19T15:04:55.238Z,90.40
2022-10-19T15:07:40.080Z,90.90
2022-10-19T15:10:17.739Z,91.10
2022-10-19T15:12:45.539Z,91.50
2022-10-19T15:15:25.575Z,91.30
2022-10-19T15:17:54.806Z,91.90
2022-10-19T15:20:29.819Z,91.70
2022-10-19T15:23:00.236Z,92.50
2022-10-19T15:25:27.460Z,93.10
2022-10-19T15:27:54.775Z,93.60
2022-10-19T15:30:28.183Z,93.50
2022-10-19T15:33:20.677Z,93.90
2022-10-19T15:35:49.553Z,93.50
2022-10-19T15:38:27.214Z,93.80
2022-10-19T15:41:02.734Z,94.90
2022-10-19T15:43:35.276Z,95.50
2022-10-19T15:46:08.316Z,95.90
2022-10-19T15:48:49.994Z,96.30
2022-10-19T15:51:25.976Z,96.50
2022-10-19T15:54:01.473Z,96.20
2022-10-19T15:56:31.597Z,96.30
2022-10-19T15:59:00.914Z,96.70
2022-10-19T16:01:31.302Z,97.10
2022-10-19T16:03:58.954Z,98.00
2022-10-19T16:06:31.876Z,98.00
2022-10-19T16:09:00.638Z,99.00
2022-10-19T16:11:29.192Z,98.90
2022-10-19T16:13:56.420Z,99.10
2022-10-19T16:16:32.755Z,99.50
2022-10-19T16:19:01.289Z,99.60
2022-10-19T16:21:34.684Z,99.90
2022-10-19T16:24:02.276Z,99.90
2022-10-19T16:26:32.029Z,99.90
2022-10-19T16:29:00.705Z,99.90
2022-10-19T16:31:27.938Z,99.90
2022-10-19T16:33:55.257Z,99.90
2022-10-19T16:36:22.352Z,99.90
2022-10-19T16:38:49.715Z,99.90
2022-10-19T16:41:16.972Z,99.90
2022-10-19T16:43:44.375Z,99.90
2022-10-19T16:46:11.572Z,99.90
2022-10-19T16:48:38.817Z,99.90
2022-10-19T16:51:06.077Z,99.90
2022-10-19T16:53:34.571Z,99.90
2022-10-19T16:56:10.591Z,99.90
2022-10-19T16:58:38.492Z,99.90
2022-10-19T17:01:10.058Z,99.90
2022-10-19T17:03:37.512Z,99.90
2022-10-19T17:06:06.556Z,99.90
2022-10-19T17:08:53.055Z,99.90
2022-10-19T17:11:26.152Z,99.90
2022-10-19T17:13:56.096Z,99.90
2022-10-19T17:16:24.159Z,99.90
2022-10-19T17:18:54.796Z,99.90
2022-10-19T17:21:24.412Z,99.90
2022-10-19T17:23:58.302Z,99.90
2022-10-19T17:26:35.735Z,99.90
2022-10-19T17:29:03.772Z,99.90
2022-10-19T17:31:31.472Z,99.90
2022-10-19T17:34:00.776Z,99.90
2022-10-19T17:36:34.390Z,99.90
2022-10-19T17:39:11.292Z,99.90
2022-10-19T17:41:38.680Z,99.90
2022-10-19T17:44:06.617Z,99.90
2022-10-19T17:46:35.237Z,99.90
2022-10-19T17:49:02.785Z,99.90
2022-10-19T17:51:32.096Z,99.90
2022-10-19T17:54:02.076Z,99.90
2022-10-19T17:56:30.114Z,99.90
2022-10-19T17:58:58.658Z,99.90
2022-10-19T18:01:27.134Z,99.90
2022-10-19T18:03:54.413Z,99.90
2022-10-19T18:06:24.518Z,99.90
2022-10-19T18:08:54.601Z,99.90
2022-10-19T18:11:25.080Z,99.90
2022-10-19T18:13:54.799Z,99.90
2022-10-19T18:16:33.919Z,99.90
2022-10-19T18:19:02.579Z,99.90
2022-10-19T18:21:36.494Z,99.90
2022-10-19T18:24:03.893Z,99.90
2022-10-19T18:26:33.182Z,99.90
2022-10-19T18:29:03.215Z,99.90
2022-10-19T18:31:31.899Z,99.90
2022-10-19T18:34:02.314Z,99.90
2022-10-19T18:36:30.453Z,99.90
2022-10-19T18:39:02.990Z,99.90
2022-10-19T18:41:30.917Z,99.90
2022-10-19T18:44:03.919Z,99.90
2022-10-19T18:46:32.833Z,99.90
2022-10-19T18:49:00.954Z,99.90
2022-10-19T18:51:28.803Z,99.90
2022-10-19T18:53:56.378Z,99.90
2022-10-19T18:56:25.958Z,99.90
2022-10-19T18:58:53.225Z,99.90
2022-10-19T19:01:26.943Z,99.90
2022-10-19T19:03:56.533Z,99.90
2022-10-19T19:06:26.315Z,99.90
2022-10-19T19:08:59.419Z,99.90
2022-10-19T19:11:35.851Z,99.90
2022-10-19T19:14:16.998Z,99.90
2022-10-19T19:16:45.834Z,99.90
2022-10-19T19:19:18.020Z,99.90
2022-10-19T19:21:46.325Z,99.90
2022-10-19T19:24:16.519Z,99.90
2022-10-19T19:26:48.517Z,99.90
2022-10-19T19:29:16.879Z,99.90
2022-10-19T19:31:44.079Z,99.90
2022-10-19T19:34:11.798Z,99.90
2022-10-19T19:39:15.959Z,99.90
2022-10-19T19:41:43.902Z,99.90
2022-10-19T19:44:11.093Z,99.90
2022-10-19T19:46:39.428Z,99.90
2022-10-19T19:49:06.539Z,99.90
2022-10-19T19:51:34.283Z,99.90
2022-10-19T19:54:01.498Z,99.90
2022-10-19T19:56:29.293Z,99.90
2022-10-19T19:58:58.618Z,99.90
2022-10-19T20:01:26.452Z,99.90
2022-10-19T20:03:53.765Z,99.90
2022-10-19T20:06:25.165Z,99.90
2022-10-19T20:08:54.665Z,99.90
2022-10-19T20:11:22.998Z,99.90
2022-10-19T20:13:50.594Z,99.90
2022-10-19T20:16:26.623Z,99.90
2022-10-19T20:19:05.256Z,99.90
2022-10-19T20:21:33.812Z,99.90
2022-10-19T20:24:01.476Z,99.90
2022-10-19T20:26:29.012Z,99.90
2022-10-19T20:28:57.158Z,99.90
2022-10-19T20:31:25.591Z,99.90
2022-10-19T20:33:52.958Z,99.90
2022-10-19T20:36:25.113Z,99.90
2022-10-19T20:38:57.579Z,99.90
2022-10-19T20:41:28.122Z,99.90
2022-10-19T20:43:55.655Z,99.90
2022-10-19T20:46:32.222Z,99.90
2022-10-19T20:49:01.637Z,99.90
2022-10-19T20:51:32.515Z,99.90
2022-10-19T20:54:02.284Z,99.90
2022-10-19T20:56:34.866Z,99.90
2022-10-19T20:59:11.038Z,99.90
2022-10-19T21:01:39.739Z,99.90
2022-10-19T21:04:09.920Z,99.90
2022-10-19T21:06:45.114Z,99.90
2022-10-19T21:09:16.761Z,99.90
2022-10-19T21:11:44.924Z,99.90
2022-10-19T21:14:15.855Z,99.90
2022-10-19T21:16:43.259Z,99.90
2022-10-19T21:19:16.034Z,99.90
2022-10-19T21:21:46.319Z,99.90
2022-10-19T21:24:14.515Z,99.90
2022-10-19T21:26:41.946Z,99.90
2022-10-19T21:29:10.275Z,99.90
2022-10-19T21:31:39.789Z,99.90
2022-10-19T21:34:11.855Z,99.90
2022-10-19T21:36:39.175Z,99.90
2022-10-19T21:39:06.494Z,99.90
2022-10-19T21:41:33.695Z,99.90
2022-10-19T21:44:01.134Z,99.90
2022-10-19T21:46:28.455Z,99.90
2022-10-19T21:48:56.312Z,99.90
2022-10-19T21:51:31.429Z,99.90
2022-10-19T21:53:58.741Z,99.90
2022-10-19T21:56:25.872Z,99.90
2022-10-19T21:58:54.225Z,99.90
2022-10-19T22:01:23.872Z,99.90
2022-10-19T22:03:56.275Z,99.90
2022-10-19T22:06:24.170Z,99.90
2022-10-19T22:08:51.712Z,99.90
2022-10-19T22:11:18.925Z,99.90
2022-10-19T22:13:46.264Z,99.90
2022-10-19T22:16:17.067Z,99.90
2022-10-19T22:18:44.842Z,99.90
2022-10-19T22:21:23.695Z,99.90
2022-10-19T22:23:56.565Z,99.90
2022-10-19T22:26:26.760Z,99.90
2022-10-19T22:28:57.035Z,99.90
2022-10-19T22:31:25.864Z,99.90
2022-10-19T22:33:53.107Z,99.90
2022-10-19T22:36:20.324Z,99.90
2022-10-19T22:38:47.744Z,99.90
2022-10-19T22:42:10.980Z,99.90
2022-10-19T22:44:38.092Z,99.90
2022-10-19T22:47:05.240Z,99.90
2022-10-19T22:49:33.343Z,99.90
2022-10-19T22:52:00.445Z,99.90
2022-10-19T22:54:27.546Z,99.90
2022-10-19T22:56:54.720Z,99.90
2022-10-19T22:59:21.785Z,99.90
2022-10-19T23:01:48.902Z,99.90
2022-10-19T23:04:16.104Z,99.90
2022-10-19T23:06:43.204Z,99.90
2022-10-19T23:09:10.464Z,99.90
2022-10-19T23:11:37.500Z,99.90
2022-10-19T23:14:04.964Z,99.90
2022-10-19T23:16:32.305Z,99.90
2022-10-19T23:18:59.424Z,99.90
2022-10-19T23:21:26.579Z,99.90
2022-10-19T23:23:54.102Z,99.90
2022-10-19T23:26:22.065Z,99.90
2022-10-19T23:28:50.265Z,99.90
2022-10-19T23:31:26.628Z,99.90
2022-10-19T23:33:54.766Z,99.90
2022-10-19T23:36:25.519Z,99.90
2022-10-19T23:38:53.764Z,99.90
2022-10-19T23:41:21.756Z,99.90
2022-10-19T23:43:49.377Z,99.90
2022-10-19T23:46:16.958Z,99.90
2022-10-19T23:48:44.216Z,99.90
2022-10-19T23:51:13.844Z,99.90
2022-10-19T23:53:43.404Z,99.90
2022-10-19T23:56:15.329Z,99.90
2022-10-19T23:58:43.031Z,99.90
